Time;durP1;ratioP1;P1;durP2;ratioP2;P2;SDS_P1;SDS_P2;PMS_P1;PMS_P2;Temp;Humidity;BMP_temperature;BMP_pressure;BME280_temperature;BME280_humidity;BME280_pressure;Samples;Min_cycle;Max_cycle;Signal;HPM_P1;HPM_P2
2022/11/07 00:00:49;;;;;;;0.60;0.60;;;11.70;99.90;11.60;100536.00;;;;5035877;28;20186;-72
2022/11/07 00:03:17;;;;;;;0.90;0.90;;;11.70;99.90;11.90;100538.00;;;;5050947;28;20216;-72
2022/11/07 00:05:43;;;;;;;1.83;0.90;;;11.70;99.90;11.80;100528.00;;;;5050927;28;20213;-72
2022/11/07 00:08:09;;;;;;;0.60;0.60;;;11.70;99.90;11.70;100544.00;;;;5050822;28;20196;-73
2022/11/07 00:10:40;;;;;;;0.50;0.50;;;11.70;99.90;11.80;100535.00;;;;5035553;28;20660;-73
2022/11/07 00:13:06;;;;;;;0.57;0.57;;;11.70;99.90;11.80;100554.00;;;;5050620;28;20208;-73
2022/11/07 00:15:32;;;;;;;0.40;0.40;;;11.70;99.90;11.80;100499.00;;;;5035572;28;20636;-73
2022/11/07 00:17:58;;;;;;;0.40;0.40;;;11.70;99.90;12.10;100514.00;;;;5050939;28;20713;-73
2022/11/07 00:20:24;;;;;;;0.73;0.73;;;11.80;99.90;11.90;100549.00;;;;5051357;28;20903;-73
2022/11/07 00:22:49;;;;;;;0.60;0.60;;;11.80;99.90;11.70;100538.00;;;;5035477;28;20645;-73
2022/11/07 00:25:15;;;;;;;0.40;0.40;;;11.70;99.90;11.70;100561.00;;;;5051161;28;20243;-73
2022/11/07 00:27:49;;;;;;;0.60;0.60;;;11.70;99.90;11.90;100555.00;;;;5033934;28;20182;-73
2022/11/07 00:30:38;;;;;;;0.70;0.70;;;11.70;99.90;11.70;100509.00;;;;5050868;28;20175;-73
2022/11/07 00:33:03;;;;;;;0.40;0.40;;;11.60;99.90;11.60;100547.00;;;;5034688;28;20254;-73
2022/11/07 00:35:29;;;;;;;0.50;0.50;;;11.60;99.90;12.10;100513.00;;;;5035317;28;20172;-73
2022/11/07 00:37:58;;;;;;;0.40;0.40;;;11.70;99.90;11.90;100573.00;;;;5034872;28;20186;-73
2022/11/07 00:40:24;;;;;;;1.63;0.90;;;11.70;99.90;11.90;100558.00;;;;5050198;28;20191;-73
2022/11/07 00:42:50;;;;;;;0.77;0.77;;;11.80;99.90;11.40;100556.00;;;;5050106;28;20196;-72
2022/11/07 00:45:18;;;;;;;0.57;0.57;;;11.60;99.90;11.50;100553.00;;;;5035142;28;20181;-73
2022/11/07 00:47:44;;;;;;;0.40;0.40;;;11.60;99.90;11.50;100571.00;;;;5050794;28;20172;-73
2022/11/07 00:50:10;;;;;;;0.40;0.40;;;11.50;99.90;11.70;100557.00;;;;5034855;28;20191;-73
2022/11/07 00:52:39;;;;;;;0.70;0.70;;;11.60;99.90;11.80;100557.00;;;;5034370;28;20666;-74
2022/11/07 00:55:05;;;;;;;0.50;0.50;;;11.60;99.90;11.70;100566.00;;;;5049632;28;20177;-73
2022/11/07 00:57:31;;;;;;;0.73;0.70;;;11.60;99.90;11.90;100571.00;;;;5034476;28;20229;-73
2022/11/07 00:59:57;;;;;;;0.40;0.40;;;11.60;99.90;11.90;100569.00;;;;5033728;28;20270;-74
2022/11/07 01:02:23;;;;;;;1.13;0.97;;;11.60;99.90;11.70;100571.00;;;;5033273;28;20623;-73
2022/11/07 01:07:33;;;;;;;0.40;0.40;;;11.70;99.90;11.80;100575.00;;;;5034313;28;20203;-72
2022/11/07 01:09:59;;;;;;;1.03;0.43;;;11.70;99.90;11.70;100577.00;;;;5034687;28;20179;-72
2022/11/07 01:12:25;;;;;;;0.50;0.50;;;11.70;99.90;11.80;100565.00;;;;5049617;28;20212;-72
2022/11/07 01:14:51;;;;;;;1.80;1.03;;;11.70;99.90;11.90;100524.00;;;;5049870;28;20514;-73
2022/11/07 01:17:17;;;;;;;1.00;0.90;;;11.70;99.90;11.90;100565.00;;;;5034381;28;20186;-73
2022/11/07 01:19:43;;;;;;;0.43;0.43;;;11.70;99.90;11.80;100562.00;;;;5049694;28;20620;-73
2022/11/07 01:22:10;;;;;;;0.47;0.47;;;11.70;99.90;11.80;100577.00;;;;5049424;28;20184;-73
2022/11/07 01:24:36;;;;;;;0.40;0.40;;;11.70;99.90;11.70;100529.00;;;;5049556;28;20533;-72
2022/11/07 01:27:02;;;;;;;0.50;0.50;;;11.70;99.90;11.90;100577.00;;;;5034096;28;20178;-73
2022/11/07 01:29:28;;;;;;;0.60;0.60;;;11.70;99.90;11.90;100577.00;;;;5034230;28;20182;-73
2022/11/07 01:31:54;;;;;;;0.50;0.50;;;11.70;99.90;11.90;100539.00;;;;5049141;28;20224;-73
2022/11/07 01:34:20;;;;;;;0.73;0.73;;;11.70;99.90;12.10;100578.00;;;;5034137;28;20267;-73
2022/11/07 01:36:46;;;;;;;0.50;0.50;;;11.80;99.90;12.20;100576.00;;;;5049072;28;20228;-73
2022/11/07 01:39:12;;;;;;;0.50;0.50;;;11.80;99.90;12.50;100583.00;;;;5049413;28;20556;-73
2022/11/07 01:41:38;;;;;;;0.50;0.50;;;11.90;99.90;12.50;100563.00;;;;5049179;28;20181;-73
2022/11/07 01:44:07;;;;;;;1.07;1.07;;;12.00;99.90;12.70;100586.00;;;;5049123;28;20175;-73
2022/11/07 01:46:42;;;;;;;0.57;0.57;;;12.10;99.90;12.20;100578.00;;;;5034399;28;20584;-73
2022/11/07 01:49:30;;;;;;;0.50;0.50;;;12.00;99.90;12.50;100576.00;;;;5049195;28;20275;-73
2022/11/07 01:52:05;;;;;;;0.50;0.50;;;12.00;99.90;12.10;100526.00;;;;5048939;28;20572;-73
2022/11/07 01:54:36;;;;;;;0.50;0.50;;;12.00;99.90;12.10;100568.00;;;;5033317;28;20184;-73
2022/11/07 01:57:16;;;;;;;0.50;0.50;;;12.00;99.90;12.30;100565.00;;;;5033730;28;20213;-73
2022/11/07 01:59:42;;;;;;;0.50;0.50;;;12.00;99.90;12.20;100581.00;;;;5032227;28;20212;-72
2022/11/07 02:02:08;;;;;;;0.47;0.47;;;12.00;99.90;12.30;100519.00;;;;5048978;28;20190;-73
2022/11/07 02:04:35;;;;;;;0.50;0.50;;;12.00;99.90;12.50;100566.00;;;;5033598;28;20175;-73
2022/11/07 02:07:17;;;;;;;0.93;0.83;;;12.10;99.90;12.10;100578.00;;;;5032195;28;20636;-73
2022/11/07 02:09:44;;;;;;;0.50;0.50;;;12.10;99.90;12.50;100570.00;;;;5041091;28;20180;-72
2022/11/07 02:12:11;;;;;;;0.57;0.57;;;12.20;99.90;12.70;100587.00;;;;5058257;28;20240;-73
2022/11/07 02:14:37;;;;;;;0.80;0.80;;;12.40;99.90;12.60;100570.00;;;;5029248;28;20252;-73
2022/11/07 02:17:04;;;;;;;0.40;0.40;;;12.40;99.90;12.40;100580.00;;;;5013686;28;20641;-72
2022/11/07 02:19:39;;;;;;;0.40;0.40;;;12.30;99.90;12.50;100593.00;;;;5012175;28;20540;-72
2022/11/07 02:22:51;;;;;;;0.40;0.40;;;12.30;99.90;12.80;100547.00;;;;5012543;28;20189;-72
2022/11/07 02:25:19;;;;;;;1.93;0.80;;;12.30;99.90;12.70;100590.00;;;;5015296;28;20232;-72
2022/11/07 02:27:48;;;;;;;0.40;0.40;;;12.50;99.90;12.80;100591.00;;;;5022859;28;20719;-72
2022/11/07 02:30:22;;;;;;;0.50;0.50;;;12.50;99.90;12.40;100563.00;;;;5061677;28;20223;-72
2022/11/07 02:33:01;;;;;;;0.40;0.40;;;12.40;99.90;12.50;100571.00;;;;5031762;28;20235;-72
2022/11/07 02:35:44;;;;;;;0.70;0.70;;;12.40;99.90;12.50;100571.00;;;;5028115;28;20193;-72
2022/11/07 02:38:35;;;;;;;0.50;0.50;;;12.40;99.90;12.60;100570.00;;;;5055268;28;20529;-72
2022/11/07 02:41:11;;;;;;;0.53;0.53;;;12.40;99.90;12.40;100547.00;;;;5065103;28;20179;-72
2022/11/07 02:43:42;;;;;;;0.47;0.47;;;12.40;99.90;12.20;100574.00;;;;5065326;28;20216;-72
2022/11/07 02:46:10;;;;;;;0.30;0.30;;;12.30;99.90;12.70;100581.00;;;;5065116;28;20648;-72
2022/11/07 02:48:50;;;;;;;2.40;0.77;;;12.40;99.90;12.40;100572.00;;;;5065269;28;20231;-72
2022/11/07 02:51:17;;;;;;;0.40;0.40;;;12.40;99.90;12.50;100554.00;;;;5048390;28;20269;-73
2022/11/07 02:53:43;;;;;;;0.40;0.40;;;12.40;99.90;12.20;100570.00;;;;5033292;28;20235;-73
2022/11/07 02:56:09;;;;;;;1.13;0.93;;;12.30;99.90;12.50;100571.00;;;;5026981;28;20544;-73
2022/11/07 02:58:35;;;;;;;0.40;0.40;;;12.30;99.90;12.80;100579.00;;;;5013378;28;20261;-73
2022/11/07 03:01:05;;;;;;;0.50;0.50;;;12.40;99.90;12.60;100572.00;;;;5011887;28;20193;-72
2022/11/07 03:03:38;;;;;;;0.40;0.40;;;12.40;99.90;12.60;100565.00;;;;5013456;28;20648;-73
2022/11/07 03:06:09;;;;;;;0.80;0.80;;;12.40;99.90;12.60;100572.00;;;;5011698;28;20185;-73
2022/11/07 03:08:35;;;;;;;0.30;0.30;;;12.40;99.90;12.80;100566.00;;;;5023389;28;20641;-73
2022/11/07 03:11:02;;;;;;;0.40;0.40;;;12.50;99.90;12.80;100571.00;;;;5031923;28;20214;-73
2022/11/07 03:13:28;;;;;;;0.30;0.30;;;12.50;99.90;13.00;100575.00;;;;5031593;28;20213;-73
2022/11/07 03:15:54;;;;;;;0.97;0.97;;;12.60;99.90;13.30;100553.00;;;;5032706;28;20503;-73
2022/11/07 03:18:21;;;;;;;0.83;0.50;;;12.70;99.90;13.00;100579.00;;;;5049218;28;20182;-73
2022/11/07 03:20:47;;;;;;;14.43;1.80;;;12.80;99.90;12.40;100572.00;;;;5051992;28;20571;-73
2022/11/07 03:23:13;;;;;;;0.50;0.50;;;12.60;99.90;12.30;100580.00;;;;5036287;28;20187;-73
2022/11/07 03:25:40;;;;;;;0.30;0.30;;;12.50;99.90;12.50;100577.00;;;;5051958;28;20595;-73
2022/11/07 03:28:06;;;;;;;1.23;1.20;;;12.40;99.90;12.30;100581.00;;;;5036506;28;20264;-73
2022/11/07 03:30:32;;;;;;;2.97;1.00;;;12.30;99.90;12.30;100579.00;;;;5036329;28;20333;-73
2022/11/07 03:32:58;;;;;;;0.30;0.30;;;12.30;99.90;12.40;100541.00;;;;5034879;28;20252;-73
2022/11/07 03:35:25;;;;;;;1.13;0.67;;;12.30;99.90;12.60;100573.00;;;;5051736;28;20677;-73
2022/11/07 03:37:51;;;;;;;0.30;0.30;;;12.40;99.90;12.50;100581.00;;;;5034754;28;20188;-73
2022/11/07 03:40:16;;;;;;;0.40;0.40;;;12.40;99.90;12.70;100574.00;;;;5036278;28;20530;-73
2022/11/07 03:42:44;;;;;;;1.13;0.60;;;12.40;99.90;12.70;100589.00;;;;5036209;28;20613;-73
2022/11/07 03:45:12;;;;;;;7.03;0.97;;;12.40;99.90;12.30;100587.00;;;;5036056;28;20555;-73
2022/11/07 03:47:41;;;;;;;0.40;0.40;;;12.30;99.90;12.70;100579.00;;;;5051455;28;20293;-73
2022/11/07 03:50:11;;;;;;;0.40;0.40;;;12.40;99.90;12.50;100539.00;;;;5034958;28;20197;-73
2022/11/07 03:52:37;;;;;;;0.30;0.30;;;12.40;99.90;12.00;100588.00;;;;5034634;28;20218;-73
2022/11/07 03:55:03;;;;;;;1.10;0.83;;;12.20;99.90;12.50;100544.00;;;;5051472;28;20543;-73
2022/11/07 03:57:29;;;;;;;0.30;0.30;;;12.30;99.90;12.50;100589.00;;;;5036093;28;20264;-73
2022/11/07 03:59:56;;;;;;;0.87;0.87;;;12.30;99.90;12.30;100593.00;;;;5035959;28;20262;-72
2022/11/07 04:02:22;;;;;;;0.30;0.30;;;12.30;99.90;12.70;100592.00;;;;5051214;28;20222;-72
2022/11/07 04:04:48;;;;;;;0.40;0.40;;;12.30;99.90;12.80;100606.00;;;;5051065;28;20266;-72
2022/11/07 04:07:14;;;;;;;1.03;0.70;;;12.40;99.90;12.40;100594.00;;;;5050986;28;20618;-72
2022/11/07 04:09:40;;;;;;;4.13;0.47;;;12.40;99.90;12.20;100598.00;;;;5051319;28;20271;-72
2022/11/07 04:17:36;;;;;;;0.50;0.50;;;12.40;99.90;12.40;100594.00;;;;5048482;28;20285;-73
2022/11/07 04:20:03;;;;;;;1.13;1.03;;;12.40;99.90;12.50;100618.00;;;;5050636;28;20212;-72
2022/11/07 04:22:29;;;;;;;0.40;0.40;;;12.40;99.90;12.50;100600.00;;;;5033864;28;20276;-72
2022/11/07 04:24:54;;;;;;;0.37;0.37;;;12.40;99.90;12.40;100599.00;;;;5050948;28;20270;-72
2022/11/07 04:30:18;;;;;;;0.30;0.30;;;12.40;99.90;12.90;100616.00;;;;5035050;28;20190;-74
2022/11/07 04:32:45;;;;;;;0.30;0.30;;;12.40;99.90;12.80;100604.00;;;;5049575;28;20210;-73
2022/11/07 04:35:10;;;;;;;0.30;0.30;;;12.50;99.90;12.70;100601.00;;;;5050353;28;20624;-73
2022/11/07 04:37:36;;;;;;;0.30;0.30;;;12.50;99.90;12.40;100576.00;;;;5034876;28;20181;-73
2022/11/07 04:40:03;;;;;;;3.53;2.00;;;12.40;99.90;12.50;100599.00;;;;5035124;28;20266;-73
2022/11/07 04:42:28;;;;;;;0.60;0.60;;;12.40;99.90;12.50;100598.00;;;;5050241;28;20194;-73
2022/11/07 04:44:54;;;;;;;1.70;1.60;;;12.50;99.90;12.70;100605.00;;;;5050378;28;20189;-73
2022/11/07 04:47:20;;;;;;;0.30;0.30;;;12.50;99.90;12.60;100545.00;;;;5050333;28;20628;-73
2022/11/07 04:49:46;;;;;;;1.13;0.53;;;12.60;99.90;12.70;100607.00;;;;5049989;28;20223;-73
2022/11/07 04:52:12;;;;;;;0.40;0.40;;;12.60;99.90;12.50;100589.00;;;;5034620;28;20526;-73
2022/11/07 04:54:38;;;;;;;0.30;0.30;;;12.50;99.90;12.60;100610.00;;;;5050816;28;20184;-74
2022/11/07 04:57:04;;;;;;;0.30;0.30;;;12.50;99.90;12.50;100608.00;;;;5050181;28;20176;-74
2022/11/07 04:59:30;;;;;;;1.43;1.33;;;12.40;99.90;12.50;100613.00;;;;5050253;28;20196;-74
2022/11/07 05:01:55;;;;;;;0.30;0.30;;;12.40;99.90;12.40;100611.00;;;;5049881;28;20249;-74
2022/11/07 05:04:21;;;;;;;0.53;0.33;;;12.40;99.90;12.40;100611.00;;;;5049548;28;20258;-74
2022/11/07 05:06:47;;;;;;;0.83;0.43;;;12.40;99.90;12.60;100609.00;;;;5034417;28;20178;-74
2022/11/07 05:09:16;;;;;;;1.80;1.70;;;12.40;99.90;12.50;100619.00;;;;5034260;28;20208;-73
2022/11/07 05:11:46;;;;;;;0.20;0.20;;;12.40;99.90;12.40;100616.00;;;;5034546;28;20208;-73
2022/11/07 05:14:13;;;;;;;0.50;0.50;;;12.30;99.90;12.50;100597.00;;;;5034367;28;20174;-73
2022/11/07 05:16:41;;;;;;;1.80;1.47;;;12.40;99.90;12.50;100610.00;;;;5050098;28;20174;-73
2022/11/07 05:19:15;;;;;;;0.20;0.20;;;12.40;99.90;12.80;100613.00;;;;5049479;28;20519;-74
2022/11/07 05:21:41;;;;;;;1.07;0.50;;;12.50;99.90;12.50;100578.00;;;;5049740;28;20185;-73
2022/11/07 05:24:07;;;;;;;0.30;0.30;;;12.50;99.90;12.90;100601.00;;;;5034264;28;20181;-74
2022/11/07 05:26:33;;;;;;;0.30;0.30;;;12.50;99.90;13.00;100600.00;;;;5049691;28;20186;-74
2022/11/07 05:28:59;;;;;;;0.30;0.30;;;12.60;99.90;13.00;100638.00;;;;5049489;28;20288;-73
2022/11/07 05:31:25;;;;;;;0.20;0.20;;;12.70;99.90;12.80;100634.00;;;;5033888;28;20190;-73
2022/11/07 05:33:51;;;;;;;0.20;0.20;;;12.60;99.90;12.70;100622.00;;;;5049418;28;20576;-74
2022/11/07 05:36:20;;;;;;;0.37;0.37;;;12.50;99.90;12.90;100614.00;;;;5049716;28;20172;-73
2022/11/07 05:38:49;;;;;;;0.37;0.37;;;12.50;99.90;12.80;100632.00;;;;5049399;28;20184;-73
2022/11/07 05:41:17;;;;;;;0.60;0.60;;;12.50;99.90;12.40;100620.00;;;;5048763;28;20238;-74
2022/11/07 05:43:43;;;;;;;0.30;0.30;;;12.30;99.90;12.30;100626.00;;;;5032602;28;20189;-75
2022/11/07 05:46:11;;;;;;;0.83;0.83;;;12.30;99.90;12.50;100627.00;;;;5049228;28;20182;-75
2022/11/07 05:48:37;;;;;;;6.57;0.60;;;12.30;99.90;12.50;100626.00;;;;5049505;28;20243;-75
2022/11/07 05:51:09;;;;;;;0.30;0.30;;;12.30;99.90;12.50;100620.00;;;;5049160;28;20592;-75
2022/11/07 05:53:35;;;;;;;0.20;0.20;;;12.30;99.90;12.40;100630.00;;;;5032500;28;20647;-75
2022/11/07 05:56:02;;;;;;;3.13;0.53;;;12.30;99.90;12.50;100621.00;;;;5049306;28;20203;-75
2022/11/07 05:58:27;;;;;;;0.43;0.43;;;12.30;99.90;12.40;100642.00;;;;5032454;28;20252;-74
2022/11/07 06:00:53;;;;;;;0.33;0.30;;;12.20;99.90;12.30;100647.00;;;;5048936;28;20255;-74
2022/11/07 06:03:19;;;;;;;0.57;0.57;;;12.20;99.90;12.20;100654.00;;;;5033816;28;20189;-74
2022/11/07 06:05:45;;;;;;;0.30;0.30;;;12.10;99.90;12.70;100652.00;;;;5048615;28;20235;-74
2022/11/07 06:08:12;;;;;;;0.40;0.30;;;12.20;99.90;12.40;100667.00;;;;5048709;28;20648;-74
2022/11/07 06:10:40;;;;;;;0.40;0.40;;;12.20;99.90;12.30;100667.00;;;;5048905;28;20182;-76
2022/11/07 06:13:11;;;;;;;0.30;0.30;;;12.20;99.90;12.60;100676.00;;;;5038181;28;20704;-75
2022/11/07 06:15:39;;;;;;;0.30;0.30;;;12.20;99.90;12.50;100685.00;;;;5068308;28;20230;-75
2022/11/07 06:18:10;;;;;;;0.30;0.30;;;12.20;99.90;12.60;100672.00;;;;5068881;28;20544;-72
2022/11/07 06:20:36;;;;;;;0.30;0.30;;;12.30;99.90;12.70;100625.00;;;;5051987;28;20215;-72
2022/11/07 06:23:05;;;;;;;0.50;0.50;;;12.30;99.90;12.50;100675.00;;;;5068730;28;20241;-72
2022/11/07 06:25:32;;;;;;;0.40;0.40;;;12.30;99.90;12.60;100668.00;;;;5068439;28;20291;-73
2022/11/07 06:28:04;;;;;;;0.30;0.30;;;12.30;99.90;12.50;100666.00;;;;5068807;28;20657;-72
2022/11/07 06:30:31;;;;;;;0.30;0.30;;;12.30;99.90;12.60;100670.00;;;;5053035;28;20174;-72
2022/11/07 06:33:04;;;;;;;0.90;0.90;;;12.30;99.90;12.50;100611.00;;;;5053198;28;20218;-72
2022/11/07 06:35:31;;;;;;;0.87;0.87;;;12.20;99.90;12.60;100678.00;;;;5068464;28;20666;-73
2022/11/07 06:38:02;;;;;;;0.30;0.30;;;12.30;99.90;12.50;100657.00;;;;5068678;28;20185;-73
2022/11/07 06:40:28;;;;;;;0.30;0.30;;;12.30;99.90;12.70;100690.00;;;;5068375;28;20645;-73
2022/11/07 06:43:04;;;;;;;2.43;0.90;;;12.30;99.90;12.40;100636.00;;;;5068518;28;20192;-72
2022/11/07 06:45:30;;;;;;;0.20;0.20;;;12.30;99.90;12.50;100673.00;;;;5068346;28;20227;-73
2022/11/07 06:47:56;;;;;;;0.30;0.30;;;12.30;99.90;12.40;100684.00;;;;5040062;28;20673;-72
2022/11/07 06:50:22;;;;;;;0.30;0.30;;;12.20;99.90;12.70;100690.00;;;;5011847;28;20644;-72
2022/11/07 06:52:50;;;;;;;0.40;0.40;;;12.30;99.90;12.40;100671.00;;;;5013650;28;20536;-72
2022/11/07 06:55:16;;;;;;;0.50;0.50;;;12.20;99.90;12.60;100693.00;;;;5016033;28;20174;-72
2022/11/07 06:57:41;;;;;;;0.30;0.30;;;12.30;99.90;12.50;100646.00;;;;5016247;28;20534;-73
2022/11/07 07:00:09;;;;;;;0.50;0.50;;;12.30;99.90;12.50;100664.00;;;;5015722;28;20178;-72
2022/11/07 07:02:35;;;;;;;0.30;0.30;;;12.30;99.90;12.70;100700.00;;;;5015986;28;20653;-72
2022/11/07 07:05:21;;;;;;;0.43;0.43;;;12.30;99.90;12.90;100693.00;;;;4999632;28;20203;-72
2022/11/07 07:07:47;;;;;;;0.30;0.30;;;12.40;99.90;12.60;100663.00;;;;5034085;28;20657;-72
2022/11/07 07:10:17;;;;;;;0.20;0.20;;;12.30;99.90;12.60;100669.00;;;;5015735;28;20188;-73
2022/11/07 07:12:43;;;;;;;0.30;0.30;;;12.30;99.90;12.70;100655.00;;;;5015779;28;20206;-72
2022/11/07 07:18:02;;;;;;;0.30;0.30;;;12.40;99.90;12.50;100692.00;;;;5002369;28;20233;-72
2022/11/07 07:20:29;;;;;;;0.30;0.30;;;12.30;99.90;12.60;100691.00;;;;5016657;28;20189;-72
2022/11/07 07:22:56;;;;;;;0.83;0.67;;;12.30;99.90;12.50;100659.00;;;;4999320;28;20709;-72
2022/11/07 07:25:22;;;;;;;0.20;0.20;;;12.30;99.90;12.60;100691.00;;;;5016667;28;20178;-72
2022/11/07 07:27:47;;;;;;;1.23;0.77;;;12.40;99.90;12.60;100691.00;;;;5015789;28;20281;-72
2022/11/07 07:30:14;;;;;;;0.30;0.30;;;12.40;99.90;12.70;100718.00;;;;4998847;28;20313;-73
2022/11/07 07:32:40;;;;;;;0.30;0.30;;;12.40;99.90;12.70;100705.00;;;;4998711;28;20218;-73
2022/11/07 07:35:07;;;;;;;0.40;0.40;;;12.40;99.90;12.80;100713.00;;;;5015468;28;20249;-73
2022/11/07 07:37:33;;;;;;;0.30;0.30;;;12.50;99.90;12.90;100718.00;;;;5015214;28;20186;-72
2022/11/07 07:39:59;;;;;;;0.30;0.30;;;12.50;99.90;12.80;100695.00;;;;5016449;28;20177;-72
2022/11/07 07:42:25;;;;;;;0.30;0.30;;;12.60;99.90;12.90;100685.00;;;;5014743;28;20174;-73
2022/11/07 07:44:59;;;;;;;0.30;0.30;;;12.60;99.90;12.80;100705.00;;;;5016349;28;20614;-73
2022/11/07 07:47:33;;;;;;;0.40;0.40;;;12.60;99.90;12.90;100704.00;;;;5015185;28;20191;-74
2022/11/07 07:50:20;;;;;;;1.57;0.83;;;12.60;99.90;13.00;100720.00;;;;5015196;28;20180;-73
2022/11/07 07:52:50;;;;;;;0.40;0.40;;;12.70;99.90;13.10;100708.00;;;;5016197;28;20278;-73
2022/11/07 07:55:40;;;;;;;1.73;1.63;;;12.70;99.90;13.20;100671.00;;;;4994753;28;20871;-72
2022/11/07 07:58:29;;;;;;;0.30;0.30;;;12.80;99.90;13.10;100707.00;;;;4998846;28;20577;-72
2022/11/07 08:00:57;;;;;;;0.40;0.40;;;12.80;99.90;13.20;100665.00;;;;4998489;28;20179;-72
2022/11/07 08:03:25;;;;;;;0.30;0.30;;;12.90;99.90;12.90;100712.00;;;;5014963;28;20190;-72
2022/11/07 08:05:58;;;;;;;0.77;0.77;;;12.80;99.90;13.20;100721.00;;;;5014436;28;20183;-72
2022/11/07 08:08:28;;;;;;;0.60;0.60;;;12.90;99.90;13.30;100722.00;;;;4998463;28;20262;-72
2022/11/07 08:11:09;;;;;;;0.40;0.40;;;12.90;99.90;13.60;100710.00;;;;4998444;28;20211;-72
2022/11/07 08:13:40;;;;;;;0.40;0.40;;;13.00;99.90;13.40;100723.00;;;;5025368;28;20205;-72
2022/11/07 08:16:08;;;;;;;0.97;0.60;;;13.10;99.90;13.20;100723.00;;;;5051105;28;20202;-72
2022/11/07 08:18:39;;;;;;;0.30;0.30;;;13.00;99.90;13.10;100715.00;;;;5050938;28;20193;-72
2022/11/07 08:21:09;;;;;;;0.30;0.30;;;13.00;99.90;13.30;100730.00;;;;5050709;28;20182;-72
2022/11/07 08:23:35;;;;;;;0.40;0.40;;;13.00;99.90;13.60;100675.00;;;;5051059;28;20198;-72
2022/11/07 08:26:10;;;;;;;2.63;1.03;;;13.10;99.90;13.70;100734.00;;;;5050527;28;20175;-72
2022/11/07 08:28:46;;;;;;;2.90;0.90;;;13.20;99.90;13.40;100732.00;;;;5048605;28;20205;-72
2022/11/07 08:31:12;;;;;;;0.30;0.30;;;13.20;99.90;13.70;100696.00;;;;5034178;28;20249;-72
2022/11/07 08:33:38;;;;;;;0.57;0.57;;;13.30;99.90;13.70;100736.00;;;;5015824;28;20598;-72
2022/11/07 08:36:08;;;;;;;0.73;0.73;;;13.40;99.90;13.30;100731.00;;;;5014316;28;20322;-72
2022/11/07 08:38:38;;;;;;;0.30;0.30;;;13.20;99.90;13.90;100737.00;;;;5055354;28;20188;-72
2022/11/07 08:41:04;;;;;;;0.50;0.50;;;13.40;99.90;13.60;100750.00;;;;5047202;28;20193;-68
2022/11/07 08:43:30;;;;;;;0.40;0.40;;;13.40;99.90;13.80;100753.00;;;;5047389;28;20191;-72
2022/11/07 08:46:04;;;;;;;0.40;0.40;;;13.40;99.90;14.30;100740.00;;;;5015832;28;20189;-71
2022/11/07 08:48:30;;;;;;;0.53;0.53;;;13.60;99.90;14.20;100747.00;;;;5046147;28;20176;-72
2022/11/07 08:50:57;;;;;;;0.40;0.40;;;13.70;99.90;14.70;100745.00;;;;5015116;28;20168;-71
2022/11/07 08:53:35;;;;;;;0.30;0.30;;;14.00;99.90;14.20;100741.00;;;;5047067;28;20326;-71
2022/11/07 08:56:08;;;;;;;0.70;0.70;;;14.00;99.90;13.80;100735.00;;;;5044487;28;20175;-71
2022/11/07 08:58:35;;;;;;;4.07;1.57;;;13.80;99.90;13.70;100749.00;;;;5014038;28;20613;-71
2022/11/07 09:01:06;;;;;;;0.30;0.30;;;13.70;99.90;14.10;100749.00;;;;5048035;28;20211;-71
2022/11/07 09:03:40;;;;;;;0.30;0.30;;;13.80;99.90;14.60;100747.00;;;;5029389;28;20187;-71
2022/11/07 09:06:16;;;;;;;1.07;0.87;;;14.00;99.90;14.80;100728.00;;;;5023582;28;20557;-68
2022/11/07 09:08:42;;;;;;;0.40;0.40;;;14.20;99.90;14.20;100665.00;;;;5047207;28;20184;-73
2022/11/07 09:11:09;;;;;;;0.40;0.40;;;14.10;99.90;14.90;100729.00;;;;5013865;28;20164;-70
2022/11/07 09:13:38;;;;;;;0.40;0.40;;;14.20;99.90;14.20;100724.00;;;;4997251;28;20261;-70
2022/11/07 09:16:05;;;;;;;0.40;0.40;;;14.10;99.90;14.00;100689.00;;;;5013248;28;20259;-72
2022/11/07 09:18:37;;;;;;;0.43;0.43;;;13.90;99.90;13.80;100726.00;;;;5020748;28;20226;-76
2022/11/07 09:21:20;;;;;;;0.30;0.30;;;13.80;99.90;14.10;100745.00;;;;5033533;28;20246;-67
2022/11/07 09:24:29;;;;;;;0.67;0.60;;;13.90;99.90;14.70;100738.00;;;;5046201;28;20219;-68
2022/11/07 09:27:04;;;;;;;0.40;0.40;;;14.20;99.90;14.80;100671.00;;;;5012809;28;20204;-71
2022/11/07 09:29:35;;;;;;;2.30;1.87;;;14.50;99.90;14.60;100724.00;;;;5013426;28;20687;-69
2022/11/07 09:32:07;;;;;;;0.30;0.30;;;14.50;99.90;15.00;100728.00;;;;5024724;28;20260;-69
2022/11/07 09:34:35;;;;;;;0.30;0.30;;;14.70;99.90;15.50;100724.00;;;;5033937;28;20172;-67
2022/11/07 09:37:02;;;;;;;0.30;0.30;;;14.90;99.90;15.30;100720.00;;;;5033055;28;20203;-71
2022/11/07 09:39:33;;;;;;;0.20;0.20;;;15.10;99.90;15.50;100726.00;;;;5033587;28;20179;-70
2022/11/07 09:42:32;;;;;;;0.30;0.30;;;15.10;99.90;16.20;100708.00;;;;5034108;28;20178;-72
2022/11/07 09:45:12;;;;;;;0.43;0.43;;;15.50;99.90;14.70;100736.00;;;;5032617;28;20169;-77
2022/11/07 09:47:53;;;;;;;0.30;0.30;;;15.10;99.90;14.90;100739.00;;;;5032582;28;20188;-74
2022/11/07 09:50:29;;;;;;;3.03;1.53;;;15.00;99.90;14.50;100746.00;;;;5016312;28;20283;-73
2022/11/07 09:53:07;;;;;;;0.70;0.60;;;14.80;99.90;14.80;100749.00;;;;5033647;28;20248;-70
2022/11/07 09:55:37;;;;;;;0.30;0.30;;;14.80;99.90;15.40;100752.00;;;;5015872;28;20188;-73
2022/11/07 09:58:31;;;;;;;0.20;0.20;;;15.10;99.90;15.30;100767.00;;;;5030574;28;20193;-72
2022/11/07 10:01:05;;;;;;;0.30;0.30;;;15.10;99.90;16.10;100779.00;;;;5020730;28;20209;-72
2022/11/07 10:03:53;;;;;;;1.70;1.60;;;15.50;99.90;15.80;100773.00;;;;5032621;28;20189;-70
2022/11/07 10:06:35;;;;;;;0.53;0.53;;;15.50;99.90;15.30;100775.00;;;;5031704;28;20190;-73
2022/11/07 10:09:17;;;;;;;2.83;2.47;;;15.30;99.90;14.90;100768.00;;;;5032087;28;20182;-75
2022/11/07 10:12:05;;;;;;;2.27;0.90;;;15.10;99.90;15.60;100773.00;;;;5049022;28;20182;-78
2022/11/07 10:15:19;;;;;;;0.30;0.30;;;15.30;99.90;15.50;100784.00;;;;5048966;28;20185;-72
2022/11/07 10:18:09;;;;;;;0.70;0.70;;;15.20;99.90;16.10;100784.00;;;;5030487;28;20259;-75
2022/11/07 10:33:50;;;;;;;1.27;0.60;;;15.00;99.90;15.10;100787.00;;;;5070710;28;20590;-74
2022/11/07 10:36:23;;;;;;;0.50;0.50;;;15.10;99.90;15.20;100744.00;;;;5049146;28;20539;-78
2022/11/07 10:38:50;;;;;;;0.90;0.87;;;15.10;99.90;15.20;100790.00;;;;5066407;28;20180;-78
2022/11/07 10:41:23;;;;;;;0.30;0.30;;;15.20;99.90;15.40;100785.00;;;;5049261;28;20191;-78
2022/11/07 10:43:59;;;;;;;0.30;0.30;;;15.20;99.90;15.80;100784.00;;;;5066130;28;20204;-78
2022/11/07 10:46:37;;;;;;;0.30;0.30;;;15.30;99.90;15.50;100786.00;;;;5066136;28;20454;-77
2022/11/07 10:49:14;;;;;;;0.27;0.27;;;15.30;99.90;15.60;100796.00;;;;5049390;28;20188;-78
2022/11/07 10:51:41;;;;;;;0.30;0.30;;;15.30;99.90;15.50;100796.00;;;;5050201;28;20201;-78
2022/11/07 10:54:28;;;;;;;0.30;0.30;;;15.40;99.90;15.80;100794.00;;;;5048275;28;20192;-78
2022/11/07 10:57:49;;;;;;;3.27;2.67;;;15.50;99.90;15.60;100793.00;;;;5074328;28;20213;-78
2022/11/07 11:00:24;;;;;;;0.43;0.30;;;15.50;99.90;15.70;100744.00;;;;5056823;28;20655;-78
2022/11/07 11:02:51;;;;;;;0.30;0.30;;;15.50;99.90;16.30;100763.00;;;;5058802;28;20196;-78
2022/11/07 11:05:35;;;;;;;0.40;0.40;;;15.70;99.90;16.10;100797.00;;;;5074697;28;20217;-78
2022/11/07 11:08:22;;;;;;;0.43;0.43;;;15.80;99.90;15.60;100797.00;;;;5064750;28;20205;-75
2022/11/07 11:11:20;;;;;;;0.80;0.60;;;15.60;99.90;15.50;100785.00;;;;5073485;28;20190;-76
2022/11/07 11:14:21;;;;;;;0.40;0.40;;;15.50;99.90;15.30;100735.00;;;;5057062;28;20193;-76
2022/11/07 11:17:59;;;;;;;0.67;0.63;;;15.30;99.90;15.50;100792.00;;;;5069680;28;20708;-76
2022/11/07 11:20:34;;;;;;;0.30;0.30;;;15.40;99.90;15.60;100739.00;;;;5051716;28;20262;-76
2022/11/07 11:23:06;;;;;;;2.40;0.93;;;15.40;99.90;15.70;100751.00;;;;5074153;28;20281;-76
2022/11/07 11:25:46;;;;;;;0.90;0.63;;;15.50;99.90;15.10;100783.00;;;;5064656;28;20189;-76
2022/11/07 11:28:38;;;;;;;0.63;0.43;;;15.20;99.90;15.60;100781.00;;;;5073945;28;20186;-76
2022/11/07 11:31:39;;;;;;;1.33;1.20;;;15.30;99.90;15.50;100784.00;;;;5088728;28;20198;-76